sensor_id;sensor_type;location;lat;lon;timestamp;pressure;altitude;pressure_sealevel;temperature;humidity
32638;BME280;19045;52.268;10.506;2022-10-16T00:00:34;100168.13;;;14.67;100.00
32638;BME280;19045;52.268;10.506;2022-10-16T00:03:01;100164.97;;;14.60;100.00
32638;BME280;19045;52.268;10.506;2022-10-16T00:05:28;100160.16;;;14.57;100.00
32638;BME280;19045;52.268;10.506;2022-10-16T00:07:54;100158.25;;;14.58;100.00
32638;BME280;19045;52.268;10.506;2022-10-16T00:10:23;100167.09;;;14.63;100.00
32638;BME280;19045;52.268;10.506;2022-10-16T00:12:49;100159.34;;;14.57;100.00
32638;BME280;19045;52.268;10.506;2022-10-16T00:15:16;100163.66;;;14.58;100.00
32638;BME280;19045;52.268;10.506;2022-10-16T00:17:43;100161.00;;;14.53;100.00
32638;BME280;19045;52.268;10.506;2022-10-16T00:20:09;100164.81;;;14.52;100.00
32638;BME280;19045;52.268;10.506;2022-10-16T00:22:36;100169.41;;;14.51;100.00
32638;BME280;19045;52.268;10.506;2022-10-16T00:25:03;100172.16;;;14.46;100.00
32638;BME280;19045;52.268;10.506;2022-10-16T00:27:31;100168.88;;;14.49;100.00
32638;BME280;19045;52.268;10.506;2022-10-16T00:29:58;100163.25;;;14.45;100.00
32638;BME280;19045;52.268;10.506;2022-10-16T00:32:24;100168.50;;;14.37;100.00
32638;BME280;19045;52.268;10.506;2022-10-16T00:34:51;100180.84;;;14.43;100.00
32638;BME280;19045;52.268;10.506;2022-10-16T00:37:20;100173.78;;;14.47;100.00
32638;BME280;19045;52.268;10.506;2022-10-16T00:39:46;100181.59;;;14.48;100.00
32638;BME280;19045;52.268;10.506;2022-10-16T00:42:15;100192.75;;;14.42;100.00
32638;BME280;19045;52.268;10.506;2022-10-16T00:44:46;100187.66;;;14.40;100.00
32638;BME280;19045;52.268;10.506;2022-10-16T00:47:19;100187.31;;;14.47;100.00
32638;BME280;19045;52.268;10.506;2022-10-16T00:49:46;100191.16;;;14.41;100.00
32638;BME280;19045;52.268;10.506;2022-10-16T00:52:14;100200.25;;;14.50;100.00
32638;BME280;19045;52.268;10.506;2022-10-16T00:54:41;100201.31;;;14.49;100.00
32638;BME280;19045;52.268;10.506;2022-10-16T00:57:08;100202.13;;;14.49;100.00
32638;BME280;19045;52.268;10.506;2022-10-16T00:59:36;100193.53;;;14.47;100.00
32638;BME280;19045;52.268;10.506;2022-10-16T01:02:07;100200.25;;;14.50;100.00
32638;BME280;19045;52.268;10.506;2022-10-16T01:04:36;100202.94;;;14.50;100.00
32638;BME280;19045;52.268;10.506;2022-10-16T01:07:13;100209.63;;;14.58;100.00
32638;BME280;19045;52.268;10.506;2022-10-16T01:09:49;100212.59;;;14.56;100.00
32638;BME280;19045;52.268;10.506;2022-10-16T01:12:23;100211.28;;;14.54;100.00
32638;BME280;19045;52.268;10.506;2022-10-16T01:14:53;100201.91;;;14.46;100.00
32638;BME280;19045;52.268;10.506;2022-10-16T01:17:29;100215.06;;;14.53;100.00
32638;BME280;19045;52.268;10.506;2022-10-16T01:20:13;100218.34;;;14.49;100.00
32638;BME280;19045;52.268;10.506;2022-10-16T01:22:44;100210.31;;;14.44;100.00
32638;BME280;19045;52.268;10.506;2022-10-16T01:25:20;100211.44;;;14.38;100.00
32638;BME280;19045;52.268;10.506;2022-10-16T01:27:48;100213.00;;;14.44;100.00
32638;BME280;19045;52.268;10.506;2022-10-16T01:30:19;100216.81;;;14.43;100.00
32638;BME280;19045;52.268;10.506;2022-10-16T01:32:50;100209.84;;;14.37;100.00
32638;BME280;19045;52.268;10.506;2022-10-16T01:35:21;100200.94;;;14.37;100.00
32638;BME280;19045;52.268;10.506;2022-10-16T01:37:52;100198.22;;;14.32;100.00
32638;BME280;19045;52.268;10.506;2022-10-16T01:40:23;100200.69;;;14.33;100.00
32638;BME280;19045;52.268;10.506;2022-10-16T01:42:55;100206.13;;;14.28;100.00
32638;BME280;19045;52.268;10.506;2022-10-16T01:45:23;100208.25;;;14.31;100.00
32638;BME280;19045;52.268;10.506;2022-10-16T01:47:50;100213.66;;;14.31;100.00
32638;BME280;19045;52.268;10.506;2022-10-16T01:50:20;100211.00;;;14.26;100.00
32638;BME280;19045;52.268;10.506;2022-10-16T01:52:49;100226.13;;;14.27;100.00
32638;BME280;19045;52.268;10.506;2022-10-16T01:55:21;100219.91;;;14.27;100.00
32638;BME280;19045;52.268;10.506;2022-10-16T01:57:50;100215.03;;;14.34;100.00
32638;BME280;19045;52.268;10.506;2022-10-16T02:00:22;100221.81;;;14.26;100.00
32638;BME280;19045;52.268;10.506;2022-10-16T02:02:51;100228.63;;;14.19;100.00
32638;BME280;19045;52.268;10.506;2022-10-16T02:05:23;100232.69;;;14.21;100.00
32638;BME280;19045;52.268;10.506;2022-10-16T02:07:52;100234.50;;;14.26;100.00
32638;BME280;19045;52.268;10.506;2022-10-16T02:10:19;100240.22;;;14.24;100.00
32638;BME280;19045;52.268;10.506;2022-10-16T02:12:50;100225.84;;;14.29;100.00
32638;BME280;19045;52.268;10.506;2022-10-16T02:15:21;100238.31;;;14.25;100.00
32638;BME280;19045;52.268;10.506;2022-10-16T02:17:48;100241.63;;;14.17;100.00
32638;BME280;19045;52.268;10.506;2022-10-16T02:20:14;100240.78;;;14.21;100.00
32638;BME280;19045;52.268;10.506;2022-10-16T02:22:44;100248.66;;;14.18;100.00
32638;BME280;19045;52.268;10.506;2022-10-16T02:25:16;100244.84;;;14.19;100.00
32638;BME280;19045;52.268;10.506;2022-10-16T02:27:47;100248.31;;;14.24;100.00
32638;BME280;19045;52.268;10.506;2022-10-16T02:30:24;100254.81;;;14.23;100.00
32638;BME280;19045;52.268;10.506;2022-10-16T02:32:52;100255.91;;;14.22;100.00
32638;BME280;19045;52.268;10.506;2022-10-16T02:35:21;100261.78;;;14.29;100.00
32638;BME280;19045;52.268;10.506;2022-10-16T02:37:49;100263.66;;;14.29;100.00
32638;BME280;19045;52.268;10.506;2022-10-16T02:40:17;100263.16;;;14.27;100.00
32638;BME280;19045;52.268;10.506;2022-10-16T02:42:44;100270.69;;;14.30;100.00
32638;BME280;19045;52.268;10.506;2022-10-16T02:45:11;100270.69;;;14.30;100.00
32638;BME280;19045;52.268;10.506;2022-10-16T02:47:39;100266.66;;;14.27;100.00
32638;BME280;19045;52.268;10.506;2022-10-16T02:50:06;100262.00;;;14.33;100.00
32638;BME280;19045;52.268;10.506;2022-10-16T02:52:33;100260.44;;;14.27;100.00
32638;BME280;19045;52.268;10.506;2022-10-16T02:55:00;100261.53;;;14.26;100.00
32638;BME280;19045;52.268;10.506;2022-10-16T02:57:26;100267.25;;;14.24;100.00
32638;BME280;19045;52.268;10.506;2022-10-16T02:59:53;100269.13;;;14.24;100.00
32638;BME280;19045;52.268;10.506;2022-10-16T03:02:20;100274.88;;;14.17;100.00
32638;BME280;19045;52.268;10.506;2022-10-16T03:04:48;100270.41;;;14.31;100.00
32638;BME280;19045;52.268;10.506;2022-10-16T03:07:14;100268.84;;;14.25;100.00
32638;BME280;19045;52.268;10.506;2022-10-16T03:09:41;100274.81;;;14.22;100.00
32638;BME280;19045;52.268;10.506;2022-10-16T03:12:08;100268.63;;;14.22;100.00
32638;BME280;19045;52.268;10.506;2022-10-16T03:14:34;100270.78;;;14.20;100.00
32638;BME280;19045;52.268;10.506;2022-10-16T03:17:01;100255.16;;;14.17;100.00
32638;BME280;19045;52.268;10.506;2022-10-16T03:19:27;100256.53;;;14.14;100.00
32638;BME280;19045;52.268;10.506;2022-10-16T03:21:55;100259.81;;;14.06;100.00
32638;BME280;19045;52.268;10.506;2022-10-16T03:24:22;100263.66;;;14.05;100.00
32638;BME280;19045;52.268;10.506;2022-10-16T03:26:49;100259.06;;;14.01;100.00
32638;BME280;19045;52.268;10.506;2022-10-16T03:29:15;100253.38;;;14.02;100.00
32638;BME280;19045;52.268;10.506;2022-10-16T03:31:42;100237.47;;;14.01;100.00
32638;BME280;19045;52.268;10.506;2022-10-16T03:34:09;100242.56;;;14.02;100.00
32638;BME280;19045;52.268;10.506;2022-10-16T03:36:35;100253.63;;;14.06;100.00
32638;BME280;19045;52.268;10.506;2022-10-16T03:39:03;100258.44;;;14.09;100.00
32638;BME280;19045;52.268;10.506;2022-10-16T03:41:30;100257.09;;;14.11;100.00
32638;BME280;19045;52.268;10.506;2022-10-16T03:43:57;100253.16;;;13.98;100.00
32638;BME280;19045;52.268;10.506;2022-10-16T03:46:23;100256.13;;;13.97;100.00
32638;BME280;19045;52.268;10.506;2022-10-16T03:48:50;100257.78;;;13.93;100.00
32638;BME280;19045;52.268;10.506;2022-10-16T03:51:16;100247.84;;;13.88;100.00
32638;BME280;19045;52.268;10.506;2022-10-16T03:53:43;100256.31;;;13.77;100.00
32638;BME280;19045;52.268;10.506;2022-10-16T03:56:11;100253.91;;;13.75;100.00
32638;BME280;19045;52.268;10.506;2022-10-16T03:58:37;100264.91;;;13.79;100.00
32638;BME280;19045;52.268;10.506;2022-10-16T04:01:04;100266.03;;;13.78;100.00
32638;BME280;19045;52.268;10.506;2022-10-16T04:03:31;100267.66;;;13.74;100.00
32638;BME280;19045;52.268;10.506;2022-10-16T04:05:57;100261.22;;;13.70;100.00
32638;BME280;19045;52.268;10.506;2022-10-16T04:08:24;100259.81;;;13.77;100.00
32638;BME280;19045;52.268;10.506;2022-10-16T04:10:51;100261.69;;;13.77;100.00
32638;BME280;19045;52.268;10.506;2022-10-16T04:13:19;100264.44;;;13.72;100.00
32638;BME280;19045;52.268;10.506;2022-10-16T04:15:45;100269.31;;;13.70;100.00
32638;BME280;19045;52.268;10.506;2022-10-16T04:18:12;100267.41;;;13.70;100.00
32638;BME280;19045;52.268;10.506;2022-10-16T04:20:39;100266.13;;;13.63;100.00
32638;BME280;19045;52.268;10.506;2022-10-16T04:23:05;100269.91;;;13.62;100.00
32638;BME280;19045;52.268;10.506;2022-10-16T04:25:32;100276.09;;;13.62;100.00
32638;BME280;19045;52.268;10.506;2022-10-16T04:27:58;100281.47;;;13.67;100.00
32638;BME280;19045;52.268;10.506;2022-10-16T04:30:26;100280.66;;;13.72;100.00
32638;BME280;19045;52.268;10.506;2022-10-16T04:32:53;100275.78;;;13.69;100.00
32638;BME280;19045;52.268;10.506;2022-10-16T04:35:21;100284.44;;;13.66;100.00
32638;BME280;19045;52.268;10.506;2022-10-16T04:37:47;100290.38;;;13.68;100.00
32638;BME280;19045;52.268;10.506;2022-10-16T04:40:15;100287.44;;;13.64;100.00
32638;BME280;19045;52.268;10.506;2022-10-16T04:42:42;100294.22;;;13.62;100.00
32638;BME280;19045;52.268;10.506;2022-10-16T04:45:09;100299.88;;;13.60;100.00
32638;BME280;19045;52.268;10.506;2022-10-16T04:47:37;100290.16;;;13.64;100.00
32638;BME280;19045;52.268;10.506;2022-10-16T04:50:05;100289.34;;;13.64;100.00
32638;BME280;19045;52.268;10.506;2022-10-16T04:52:32;100281.00;;;13.60;100.00
32638;BME280;19045;52.268;10.506;2022-10-16T04:54:59;100292.09;;;13.59;100.00
32638;BME280;19045;52.268;10.506;2022-10-16T04:57:28;100295.84;;;13.58;100.00
32638;BME280;19045;52.268;10.506;2022-10-16T04:59:54;100288.28;;;13.60;100.00
32638;BME280;19045;52.268;10.506;2022-10-16T05:02:21;100279.66;;;13.58;100.00
32638;BME280;19045;52.268;10.506;2022-10-16T05:04:49;100272.13;;;13.55;100.00
32638;BME280;19045;52.268;10.506;2022-10-16T05:07:16;100276.97;;;13.53;100.00
32638;BME280;19045;52.268;10.506;2022-10-16T05:09:42;100291.28;;;13.58;100.00
32638;BME280;19045;52.268;10.506;2022-10-16T05:12:09;100296.66;;;13.58;100.00
32638;BME280;19045;52.268;10.506;2022-10-16T05:14:35;100307.72;;;13.57;100.00
32638;BME280;19045;52.268;10.506;2022-10-16T05:17:02;100308.81;;;13.56;100.00
32638;BME280;19045;52.268;10.506;2022-10-16T05:19:29;100305.88;;;13.52;100.00
32638;BME280;19045;52.268;10.506;2022-10-16T05:21:57;100321.53;;;13.55;100.00
32638;BME280;19045;52.268;10.506;2022-10-16T05:24:24;100322.28;;;13.61;100.00
32638;BME280;19045;52.268;10.506;2022-10-16T05:26:51;100319.06;;;13.59;100.00
32638;BME280;19045;52.268;10.506;2022-10-16T05:29:17;100326.63;;;13.57;100.00
32638;BME280;19045;52.268;10.506;2022-10-16T05:31:44;100325.56;;;13.53;100.00
32638;BME280;19045;52.268;10.506;2022-10-16T05:34:11;100319.91;;;13.49;100.00
32638;BME280;19045;52.268;10.506;2022-10-16T05:36:37;100307.78;;;13.52;100.00
32638;BME280;19045;52.268;10.506;2022-10-16T05:39:05;100312.06;;;13.58;100.00
32638;BME280;19045;52.268;10.506;2022-10-16T05:41:32;100322.28;;;13.61;100.00
32638;BME280;19045;52.268;10.506;2022-10-16T05:43:59;100323.91;;;13.62;100.00
32638;BME280;19045;52.268;10.506;2022-10-16T05:46:25;100315.25;;;13.60;100.00
32638;BME280;19045;52.268;10.506;2022-10-16T05:48:52;100329.06;;;13.58;100.00
32638;BME280;19045;52.268;10.506;2022-10-16T05:51:19;100330.97;;;13.53;100.00
32638;BME280;19045;52.268;10.506;2022-10-16T05:53:45;100339.03;;;13.58;100.00
32638;BME280;19045;52.268;10.506;2022-10-16T05:56:14;100336.59;;;13.56;100.00
32638;BME280;19045;52.268;10.506;2022-10-16T05:58:41;100337.41;;;13.57;100.00
32638;BME280;19045;52.268;10.506;2022-10-16T06:01:11;100348.50;;;13.55;100.00
32638;BME280;19045;52.268;10.506;2022-10-16T06:03:38;100353.34;;;13.53;100.00
32638;BME280;19045;52.268;10.506;2022-10-16T06:06:09;100366.84;;;13.53;100.00
32638;BME280;19045;52.268;10.506;2022-10-16T06:08:36;100354.16;;;13.59;100.00
32638;BME280;19045;52.268;10.506;2022-10-16T06:11:04;100354.94;;;13.64;100.00
32638;BME280;19045;52.268;10.506;2022-10-16T06:13:32;100366.81;;;13.63;100.00
32638;BME280;19045;52.268;10.506;2022-10-16T06:16:00;100372.97;;;13.69;100.00
32638;BME280;19045;52.268;10.506;2022-10-16T06:18:28;100366.47;;;13.75;100.00
32638;BME280;19045;52.268;10.506;2022-10-16T06:20:55;100381.31;;;13.72;100.00
32638;BME280;19045;52.268;10.506;2022-10-16T06:23:22;100382.94;;;13.78;100.00
32638;BME280;19045;52.268;10.506;2022-10-16T06:25:49;100376.66;;;13.88;100.00
32638;BME280;19045;52.268;10.506;2022-10-16T06:28:16;100373.09;;;13.97;100.00
32638;BME280;19045;52.268;10.506;2022-10-16T06:30:44;100371.13;;;14.08;100.00
32638;BME280;19045;52.268;10.506;2022-10-16T06:33:11;100377.03;;;14.10;100.00
32638;BME280;19045;52.268;10.506;2022-10-16T06:35:37;100378.91;;;14.15;100.00
32638;BME280;19045;52.268;10.506;2022-10-16T06:38:04;100389.41;;;14.21;100.00
32638;BME280;19045;52.268;10.506;2022-10-16T06:40:30;100394.25;;;14.19;100.00
32638;BME280;19045;52.268;10.506;2022-10-16T06:42:57;100407.75;;;14.24;100.00
32638;BME280;19045;52.268;10.506;2022-10-16T06:45:24;100397.19;;;14.28;100.00
32638;BME280;19045;52.268;10.506;2022-10-16T06:47:51;100399.50;;;14.44;100.00
32638;BME280;19045;52.268;10.506;2022-10-16T06:50:18;100398.84;;;14.58;100.00
32638;BME280;19045;52.268;10.506;2022-10-16T06:52:45;100405.53;;;14.94;100.00
32638;BME280;19045;52.268;10.506;2022-10-16T06:55:11;100408.88;;;15.10;100.00
32638;BME280;19045;52.268;10.506;2022-10-16T06:57:38;100408.06;;;15.09;100.00
32638;BME280;19045;52.268;10.506;2022-10-16T07:00:06;100414.22;;;15.15;100.00
32638;BME280;19045;52.268;10.506;2022-10-16T07:02:32;100416.50;;;15.08;100.00
32638;BME280;19045;52.268;10.506;2022-10-16T07:05:00;100422.91;;;15.12;100.00
32638;BME280;19045;52.268;10.506;2022-10-16T07:07:27;100422.81;;;15.22;100.00
32638;BME280;19045;52.268;10.506;2022-10-16T07:09:54;100418.56;;;15.39;100.00
32638;BME280;19045;52.268;10.506;2022-10-16T07:12:21;100432.03;;;15.68;100.00
32638;BME280;19045;52.268;10.506;2022-10-16T07:14:47;100440.19;;;16.24;96.60
32638;BME280;19045;52.268;10.506;2022-10-16T07:17:14;100433.94;;;16.61;93.26
32638;BME280;19045;52.268;10.506;2022-10-16T07:19:40;100445.38;;;16.77;92.91
32638;BME280;19045;52.268;10.506;2022-10-16T07:22:08;100439.09;;;17.09;91.00
32638;BME280;19045;52.268;10.506;2022-10-16T07:24:35;100439.81;;;17.41;90.17
32638;BME280;19045;52.268;10.506;2022-10-16T07:27:02;100438.41;;;17.17;90.04
32638;BME280;19045;52.268;10.506;2022-10-16T07:29:28;100449.78;;;17.32;89.38
32638;BME280;19045;52.268;10.506;2022-10-16T07:31:55;100456.78;;;17.06;90.97
32638;BME280;19045;52.268;10.506;2022-10-16T07:34:22;100473.56;;;17.08;90.84
32638;BME280;19045;52.268;10.506;2022-10-16T07:36:50;100468.06;;;17.13;91.07
32638;BME280;19045;52.268;10.506;2022-10-16T07:39:18;100471.44;;;17.05;90.92
32638;BME280;19045;52.268;10.506;2022-10-16T07:41:45;100472.56;;;17.18;89.90
32638;BME280;19045;52.268;10.506;2022-10-16T07:44:11;100468.06;;;17.40;88.75
32638;BME280;19045;52.268;10.506;2022-10-16T07:46:38;100466.13;;;17.60;87.53
32638;BME280;19045;52.268;10.506;2022-10-16T07:49:04;100470.00;;;17.81;87.11
32638;BME280;19045;52.268;10.506;2022-10-16T07:51:31;100470.47;;;18.10;84.47
32638;BME280;19045;52.268;10.506;2022-10-16T07:53:58;100484.31;;;17.73;85.05
32638;BME280;19045;52.268;10.506;2022-10-16T07:56:26;100481.44;;;17.37;86.62
32638;BME280;19045;52.268;10.506;2022-10-16T07:58:53;100485.97;;;17.28;87.04
32638;BME280;19045;52.268;10.506;2022-10-16T08:01:19;100474.72;;;17.34;86.35
32638;BME280;19045;52.268;10.506;2022-10-16T08:03:51;100479.22;;;17.25;87.25
32638;BME280;19045;52.268;10.506;2022-10-16T08:06:19;100476.03;;;17.50;84.73
32638;BME280;19045;52.268;10.506;2022-10-16T08:08:46;100485.91;;;17.46;86.02
32638;BME280;19045;52.268;10.506;2022-10-16T08:11:14;100490.84;;;17.72;83.76
32638;BME280;19045;52.268;10.506;2022-10-16T08:13:42;100495.97;;;17.73;84.04
32638;BME280;19045;52.268;10.506;2022-10-16T08:16:08;100506.75;;;18.55;79.58
32638;BME280;19045;52.268;10.506;2022-10-16T08:18:36;100504.81;;;19.00;76.31
32638;BME280;19045;52.268;10.506;2022-10-16T08:21:05;100509.47;;;19.30;75.38
32638;BME280;19045;52.268;10.506;2022-10-16T08:23:32;100510.41;;;18.95;75.57
32638;BME280;19045;52.268;10.506;2022-10-16T08:26:03;100518.19;;;18.88;75.64
32638;BME280;19045;52.268;10.506;2022-10-16T08:28:31;100511.81;;;19.15;75.13
32638;BME280;19045;52.268;10.506;2022-10-16T08:31:07;100521.25;;;20.78;69.07
32638;BME280;19045;52.268;10.506;2022-10-16T08:33:34;100522.38;;;20.69;67.54
32638;BME280;19045;52.268;10.506;2022-10-16T08:36:01;100515.47;;;20.28;69.58
32638;BME280;19045;52.268;10.506;2022-10-16T08:38:28;100540.03;;;20.62;68.72
32638;BME280;19045;52.268;10.506;2022-10-16T08:40:59;100524.28;;;20.85;67.44
32638;BME280;19045;52.268;10.506;2022-10-16T08:43:43;100525.72;;;20.91;67.20
32638;BME280;19045;52.268;10.506;2022-10-16T08:46:28;100529.56;;;20.99;67.39
32638;BME280;19045;52.268;10.506;2022-10-16T08:49:02;100534.94;;;19.48;73.02
32638;BME280;19045;52.268;10.506;2022-10-16T08:51:31;100534.25;;;18.53;77.96
32638;BME280;19045;52.268;10.506;2022-10-16T08:53:59;100525.69;;;19.35;75.24
32638;BME280;19045;52.268;10.506;2022-10-16T08:56:27;100522.28;;;20.00;71.00
32638;BME280;19045;52.268;10.506;2022-10-16T08:58:54;100531.84;;;20.45;69.28
32638;BME280;19045;52.268;10.506;2022-10-16T09:01:24;100525.44;;;20.67;67.42
32638;BME280;19045;52.268;10.506;2022-10-16T09:04:08;100536.13;;;19.73;72.41
32638;BME280;19045;52.268;10.506;2022-10-16T09:06:45;100542.16;;;21.63;65.34
32638;BME280;19045;52.268;10.506;2022-10-16T09:09:25;100545.47;;;23.76;57.09
32638;BME280;19045;52.268;10.506;2022-10-16T09:11:59;100546.00;;;25.10;53.15
32638;BME280;19045;52.268;10.506;2022-10-16T09:14:40;100555.25;;;24.90;51.04
32638;BME280;19045;52.268;10.506;2022-10-16T09:17:34;100557.91;;;22.96;56.99
32638;BME280;19045;52.268;10.506;2022-10-16T09:20:14;100558.22;;;23.60;55.58
32638;BME280;19045;52.268;10.506;2022-10-16T09:22:44;100562.78;;;25.80;49.35
32638;BME280;19045;52.268;10.506;2022-10-16T09:25:12;100564.75;;;26.99;46.49
32638;BME280;19045;52.268;10.506;2022-10-16T09:27:40;100565.28;;;25.26;49.81
32638;BME280;19045;52.268;10.506;2022-10-16T09:30:12;100575.28;;;23.78;53.66
32638;BME280;19045;52.268;10.506;2022-10-16T09:32:40;100580.00;;;23.11;55.48
32638;BME280;19045;52.268;10.506;2022-10-16T09:35:11;100571.47;;;23.13;56.56
32638;BME280;19045;52.268;10.506;2022-10-16T09:37:40;100576.66;;;22.64;57.75
32638;BME280;19045;52.268;10.506;2022-10-16T09:43:33;100568.84;;;25.26;49.03
32638;BME280;19045;52.268;10.506;2022-10-16T09:46:02;100573.69;;;24.01;51.79
32638;BME280;19045;52.268;10.506;2022-10-16T09:48:36;100581.47;;;23.75;52.14
32638;BME280;19045;52.268;10.506;2022-10-16T09:51:05;100582.63;;;23.86;51.77
32638;BME280;19045;52.268;10.506;2022-10-16T09:53:42;100592.94;;;24.89;49.61
32638;BME280;19045;52.268;10.506;2022-10-16T09:56:11;100597.34;;;25.93;46.48
32638;BME280;19045;52.268;10.506;2022-10-16T09:58:42;100600.19;;;26.97;44.18
32638;BME280;19045;52.268;10.506;2022-10-16T10:01:13;100595.19;;;27.87;41.82
32638;BME280;19045;52.268;10.506;2022-10-16T10:03:43;100608.72;;;29.00;40.06
32638;BME280;19045;52.268;10.506;2022-10-16T10:06:20;100617.13;;;26.80;43.12
32638;BME280;19045;52.268;10.506;2022-10-16T10:11:57;100612.31;;;26.77;43.18
32638;BME280;19045;52.268;10.506;2022-10-16T10:14:27;100609.91;;;28.17;40.55
32638;BME280;19045;52.268;10.506;2022-10-16T10:17:12;100612.84;;;27.40;42.23
32638;BME280;19045;52.268;10.506;2022-10-16T10:19:45;100599.84;;;27.83;40.95
32638;BME280;19045;52.268;10.506;2022-10-16T10:22:22;100599.66;;;29.33;38.49
32638;BME280;19045;52.268;10.506;2022-10-16T10:24:57;100600.72;;;29.62;37.62
32638;BME280;19045;52.268;10.506;2022-10-16T10:27:32;100595.44;;;29.13;38.76
32638;BME280;19045;52.268;10.506;2022-10-16T10:30:06;100605.53;;;27.93;40.39
32638;BME280;19045;52.268;10.506;2022-10-16T10:32:39;100600.31;;;27.65;40.51
32638;BME280;19045;52.268;10.506;2022-10-16T10:35:19;100591.47;;;26.41;43.45
32638;BME280;19045;52.268;10.506;2022-10-16T10:38:03;100609.34;;;27.62;41.00
32638;BME280;19045;52.268;10.506;2022-10-16T10:40:45;100596.28;;;29.20;38.19
32638;BME280;19045;52.268;10.506;2022-10-16T10:43:25;100598.84;;;28.69;38.29
32638;BME280;19045;52.268;10.506;2022-10-16T10:45:59;100599.19;;;27.28;40.02
32638;BME280;19045;52.268;10.506;2022-10-16T10:48:44;100610.13;;;24.86;45.42
32638;BME280;19045;52.268;10.506;2022-10-16T10:51:21;100597.78;;;25.36;43.55
32638;BME280;19045;52.268;10.506;2022-10-16T10:53:56;100604.75;;;22.03;52.04
32638;BME280;19045;52.268;10.506;2022-10-16T10:56:41;100612.78;;;22.67;50.89
32638;BME280;19045;52.268;10.506;2022-10-16T10:59:23;100598.81;;;25.15;44.43
32638;BME280;19045;52.268;10.506;2022-10-16T11:01:56;100609.94;;;24.67;46.53
32638;BME280;19045;52.268;10.506;2022-10-16T11:04:38;100602.81;;;24.78;43.40
32638;BME280;19045;52.268;10.506;2022-10-16T11:07:15;100612.69;;;27.98;39.13
32638;BME280;19045;52.268;10.506;2022-10-16T11:09:47;100619.31;;;27.48;37.56
32638;BME280;19045;52.268;10.506;2022-10-16T11:12:19;100626.00;;;23.27;44.27
32638;BME280;19045;52.268;10.506;2022-10-16T11:14:52;100627.59;;;20.75;50.71
32638;BME280;19045;52.268;10.506;2022-10-16T11:17:23;100635.16;;;22.01;48.34
32638;BME280;19045;52.268;10.506;2022-10-16T11:19:54;100632.31;;;21.89;46.91
32638;BME280;19045;52.268;10.506;2022-10-16T11:22:28;100630.88;;;21.92;47.29
32638;BME280;19045;52.268;10.506;2022-10-16T11:25:02;100619.91;;;23.99;42.51
32638;BME280;19045;52.268;10.506;2022-10-16T11:27:36;100638.91;;;25.88;39.04
32638;BME280;19045;52.268;10.506;2022-10-16T11:30:11;100640.94;;;23.95;42.77
32638;BME280;19045;52.268;10.506;2022-10-16T11:32:56;100645.03;;;26.44;39.25
32638;BME280;19045;52.268;10.506;2022-10-16T11:35:37;100640.69;;;33.12;29.28
32638;BME280;19045;52.268;10.506;2022-10-16T11:38:10;100644.38;;;37.01;25.33
32638;BME280;19045;52.268;10.506;2022-10-16T11:40:41;100636.41;;;40.23;22.19
32638;BME280;19045;52.268;10.506;2022-10-16T11:43:14;100652.00;;;35.31;26.45
32638;BME280;19045;52.268;10.506;2022-10-16T11:45:45;100651.41;;;33.24;27.48
32638;BME280;19045;52.268;10.506;2022-10-16T11:48:20;100648.00;;;31.89;30.42
32638;BME280;19045;52.268;10.506;2022-10-16T11:50:53;100648.81;;;33.54;27.91
32638;BME280;19045;52.268;10.506;2022-10-16T11:53:33;100650.66;;;33.82;28.34
32638;BME280;19045;52.268;10.506;2022-10-16T11:56:01;100642.19;;;34.00;26.85
32638;BME280;19045;52.268;10.506;2022-10-16T11:58:32;100653.94;;;32.72;29.01
32638;BME280;19045;52.268;10.506;2022-10-16T12:01:12;100650.88;;;35.82;25.15
32638;BME280;19045;52.268;10.506;2022-10-16T12:03:46;100648.13;;;39.33;22.09
32638;BME280;19045;52.268;10.506;2022-10-16T12:06:23;100650.06;;;39.36;21.85
32638;BME280;19045;52.268;10.506;2022-10-16T12:08:53;100655.25;;;35.56;25.04
32638;BME280;19045;52.268;10.506;2022-10-16T12:11:32;100654.13;;;31.19;30.32
32638;BME280;19045;52.268;10.506;2022-10-16T12:14:17;100660.91;;;31.18;31.60
32638;BME280;19045;52.268;10.506;2022-10-16T12:16:52;100660.38;;;34.59;26.60
32638;BME280;19045;52.268;10.506;2022-10-16T12:19:20;100672.47;;;36.54;24.55
32638;BME280;19045;52.268;10.506;2022-10-16T12:21:48;100673.97;;;33.44;27.87
32638;BME280;19045;52.268;10.506;2022-10-16T12:24:30;100684.41;;;31.49;30.18
32638;BME280;19045;52.268;10.506;2022-10-16T12:26:58;100678.56;;;36.72;24.27
32638;BME280;19045;52.268;10.506;2022-10-16T12:29:32;100685.84;;;31.11;30.60
32638;BME280;19045;52.268;10.506;2022-10-16T12:32:00;100670.03;;;35.56;26.01
32638;BME280;19045;52.268;10.506;2022-10-16T12:34:29;100668.84;;;40.02;22.14
32638;BME280;19045;52.268;10.506;2022-10-16T12:37:08;100667.25;;;43.60;18.53
32638;BME280;19045;52.268;10.506;2022-10-16T12:39:37;100654.38;;;44.78;17.43
32638;BME280;19045;52.268;10.506;2022-10-16T12:42:17;100655.28;;;46.33;16.53
32638;BME280;19045;52.268;10.506;2022-10-16T12:44:45;100660.81;;;37.38;22.67
32638;BME280;19045;52.268;10.506;2022-10-16T12:47:20;100668.34;;;36.62;24.34
32638;BME280;19045;52.268;10.506;2022-10-16T12:49:49;100663.66;;;34.51;25.55
32638;BME280;19045;52.268;10.506;2022-10-16T12:52:28;100673.06;;;34.26;26.00
32638;BME280;19045;52.268;10.506;2022-10-16T12:54:57;100672.25;;;34.70;25.34